Time;durP1;ratioP1;P1;durP2;ratioP2;P2;SDS_P1;SDS_P2;PMS_P1;PMS_P2;Temp;Humidity;BMP_temperature;BMP_pressure;BME280_temperature;BME280_humidity;BME280_pressure;Samples;Min_cycle;Max_cycle;Signal;HPM_P1;HPM_P2
2022/01/10 00:00:17;;;;;;;;;;;3.90;99.90;;;;;;5073129;28;19920;-77
2022/01/10 00:02:43;;;;;;;;;;;3.90;99.90;;;;;;5072909;28;20456;-77
2022/01/10 00:05:09;;;;;;;;;;;3.90;99.90;;;;;;5056321;28;20005;-77
2022/01/10 00:07:35;;;;;;;22.08;5.57;;;3.90;99.90;;;;;;5055338;28;19998;-77
2022/01/10 00:10:02;;;;;;;35.78;7.60;;;4.00;99.90;;;;;;5070730;28;20413;-77
2022/01/10 00:12:28;;;;;;;32.63;7.60;;;4.00;99.90;;;;;;5070763;28;20406;-77
2022/01/10 00:14:54;;;;;;;27.50;7.72;;;4.00;99.90;;;;;;5070480;28;20413;-77
2022/01/10 00:17:20;;;;;;;31.73;5.70;;;4.00;99.90;;;;;;5072508;28;20043;-77
2022/01/10 00:19:46;;;;;;;28.55;5.70;;;4.00;99.90;;;;;;5071314;28;20438;-78
2022/01/10 00:22:12;;;;;;;30.35;5.22;;;4.00;99.90;;;;;;5072296;28;20048;-77
2022/01/10 00:24:38;;;;;;;29.23;5.60;;;4.00;99.90;;;;;;5054943;28;20148;-78
2022/01/10 00:27:04;;;;;;;26.50;4.90;;;4.00;99.90;;;;;;5072246;28;20047;-77
2022/01/10 00:29:29;;;;;;;34.50;6.57;;;4.00;99.90;;;;;;5071645;28;20044;-77
2022/01/10 00:31:57;;;;;;;34.03;5.85;;;4.10;99.90;;;;;;5072118;28;20044;-77
2022/01/10 00:34:24;;;;;;;25.63;5.45;;;4.00;99.90;;;;;;5071750;28;20060;-76
2022/01/10 00:36:49;;;;;;;28.95;5.85;;;4.10;99.90;;;;;;5071699;28;20544;-76
2022/01/10 00:39:15;;;;;;;19.25;5.28;;;4.10;99.90;;;;;;5054604;28;20052;-76
2022/01/10 00:41:41;;;;;;;29.27;5.68;;;4.00;99.90;;;;;;5054912;28;20051;-77
2022/01/10 00:44:09;;;;;;;25.38;5.05;;;4.00;99.90;;;;;;5072022;28;20048;-76
2022/01/10 00:46:35;;;;;;;28.45;5.45;;;4.10;99.90;;;;;;5036041;28;20101;-76
2022/01/10 00:49:00;;;;;;;30.60;5.88;;;4.00;99.90;;;;;;5034798;28;20044;-76
2022/01/10 00:51:26;;;;;;;27.80;5.90;;;4.00;99.90;;;;;;5051418;28;20040;-76
2022/01/10 00:53:52;;;;;;;23.40;5.80;;;4.00;99.90;;;;;;5034534;28;20403;-77
2022/01/10 00:56:19;;;;;;;28.83;6.78;;;3.90;99.90;;;;;;5051300;28;20052;-76
2022/01/10 00:58:44;;;;;;;26.15;6.05;;;3.90;99.90;;;;;;5051676;28;20461;-77
2022/01/10 01:01:10;;;;;;;24.60;5.43;;;3.80;99.90;;;;;;5051469;28;20079;-76
2022/01/10 01:03:37;;;;;;;26.90;5.25;;;3.80;99.90;;;;;;5050862;28;20044;-76
2022/01/10 01:06:02;;;;;;;36.50;6.53;;;3.70;99.90;;;;;;5051211;28;20127;-77
2022/01/10 01:08:30;;;;;;;;;;;3.70;99.90;;;;;;5035306;28;20601;-77
2022/01/10 01:13:54;;;;;;;;;;;3.50;99.90;;;;;;5038851;28;19929;-76
2022/01/10 01:16:31;;;;;;;;;;;3.40;99.90;;;;;;5051313;28;19926;-76
2022/01/10 01:19:27;;;;;;;;;;;3.40;99.90;;;;;;5051394;28;20382;-76
2022/01/10 01:24:33;;;;;;;;;;;3.20;99.90;;;;;;5051482;28;20007;-77
2022/01/10 01:26:59;;;;;;;;;;;3.10;99.90;;;;;;5034311;28;20477;-76
2022/01/10 01:29:26;;;;;;;;;;;3.10;99.90;;;;;;5050758;28;19924;-77
2022/01/10 01:31:52;;;;;;;;;;;3.00;99.90;;;;;;5051355;28;20013;-76
2022/01/10 01:34:18;;;;;;;;;;;3.00;99.90;;;;;;5051179;28;20378;-76
2022/01/10 01:36:50;;;;;;;;;;;2.90;99.90;;;;;;5051143;28;19931;-76
2022/01/10 01:39:24;;;;;;;;;;;2.90;99.90;;;;;;5050956;28;19920;-77
2022/01/10 01:41:50;;;;;;;;;;;2.80;99.90;;;;;;5051110;28;19921;-77
2022/01/10 01:44:16;;;;;;;;;;;2.80;99.90;;;;;;5051011;28;20405;-77
2022/01/10 01:46:42;;;;;;;;;;;2.70;99.90;;;;;;5070700;28;19978;-77
2022/01/10 01:49:08;;;;;;;;;;;2.60;99.90;;;;;;5054330;28;20026;-76
2022/01/10 01:51:34;;;;;;;;;;;2.60;99.90;;;;;;5053959;28;19946;-77
2022/01/10 01:54:00;;;;;;;;;;;2.60;99.90;;;;;;5071222;28;19924;-76
2022/01/10 01:56:26;;;;;;;;;;;2.50;99.90;;;;;;5054152;28;19919;-76
2022/01/10 01:58:53;;;;;;;;;;;2.50;99.90;;;;;;5070657;28;19931;-76
2022/01/10 02:01:19;;;;;;;;;;;2.50;99.90;;;;;;5070726;28;19968;-76
2022/01/10 02:03:45;;;;;;;;;;;2.40;99.90;;;;;;5071041;28;19963;-76
2022/01/10 02:06:11;;;;;;;;;;;2.40;99.90;;;;;;5071221;28;19920;-76
2022/01/10 02:08:37;;;;;;;;;;;2.40;99.90;;;;;;5054051;28;19920;-76
2022/01/10 02:11:04;;;;;;;;;;;2.30;99.90;;;;;;5070629;28;19939;-76
2022/01/10 02:13:30;;;;;;;;;;;2.30;99.90;;;;;;5053585;28;19920;-76
2022/01/10 02:16:04;;;;;;;;;;;2.30;99.90;;;;;;5071258;28;19927;-76
2022/01/10 02:18:30;;;;;;;;;;;2.20;99.90;;;;;;5066802;28;19924;-76
2022/01/10 02:21:00;;;;;;;;;;;2.20;99.90;;;;;;5050866;28;19931;-76
2022/01/10 02:23:27;;;;;;;;;;;2.20;99.90;;;;;;5060028;28;19920;-76
2022/01/10 02:25:52;;;;;;;;;;;2.20;99.90;;;;;;5070704;28;19920;-76
2022/01/10 02:28:18;;;;;;;;;;;2.20;99.90;;;;;;5056117;28;19928;-76
2022/01/10 02:30:43;;;;;;;;;;;2.10;99.90;;;;;;5050670;28;19930;-76
2022/01/10 02:33:09;;;;;;;;;;;2.10;99.90;;;;;;5050555;28;20275;-77
2022/01/10 02:35:41;;;;;;;;;;;2.10;99.90;;;;;;5054577;28;19930;-77
2022/01/10 02:38:07;;;;;;;;;;;2.10;99.90;;;;;;5070630;28;20006;-77
2022/01/10 02:40:34;;;;;;;;;;;2.00;99.90;;;;;;5070973;28;20035;-77
2022/01/10 02:43:00;;;;;;;;;;;2.00;99.90;;;;;;5056405;28;19927;-77
2022/01/10 02:45:25;;;;;;;;;;;2.00;99.90;;;;;;5074487;28;19920;-77
2022/01/10 02:47:51;;;;;;;;;;;2.00;99.90;;;;;;5057533;28;20449;-77
2022/01/10 02:50:18;;;;;;;;;;;2.00;99.90;;;;;;5074167;28;20305;-77
2022/01/10 02:52:43;;;;;;;;;;;1.90;99.90;;;;;;5069570;28;19925;-77
2022/01/10 02:55:09;;;;;;;;;;;1.90;99.90;;;;;;5054296;28;19969;-77
2022/01/10 02:57:36;;;;;;;;;;;1.90;99.90;;;;;;5037087;28;19920;-77
2022/01/10 03:00:05;;;;;;;;;;;1.80;99.90;;;;;;5053927;28;20450;-77
2022/01/10 03:02:33;;;;;;;;;;;1.80;99.90;;;;;;5054144;28;19920;-77
2022/01/10 03:04:59;;;;;;;;;;;1.80;99.90;;;;;;5037194;28;19920;-77
2022/01/10 03:07:24;;;;;;;;;;;1.80;99.90;;;;;;5053598;28;19966;-76
2022/01/10 03:09:50;;;;;;;;;;;1.80;99.90;;;;;;5036968;28;19973;-77
2022/01/10 03:12:16;;;;;;;;;;;1.80;99.90;;;;;;5053925;28;19920;-78
2022/01/10 03:14:42;;;;;;;;;;;1.70;99.90;;;;;;5054298;28;19927;-77
2022/01/10 03:17:10;;;;;;;;;;;1.70;99.90;;;;;;5053650;28;19924;-77
2022/01/10 03:19:36;;;;;;;;;;;1.70;99.90;;;;;;5053923;28;20260;-77
2022/01/10 03:22:02;;;;;;;;;;;1.60;99.90;;;;;;5053139;28;19990;-77
2022/01/10 03:24:27;;;;;;;;;;;1.60;99.90;;;;;;5053630;28;20391;-77
2022/01/10 03:26:53;;;;;;;;;;;1.60;99.90;;;;;;5057983;28;19923;-77
2022/01/10 03:29:19;;;;;;;;;;;1.60;99.90;;;;;;5074007;28;19927;-77
2022/01/10 03:31:45;;;;;;;;;;;1.60;99.90;;;;;;5072824;28;19924;-77
2022/01/10 03:34:12;;;;;;;;;;;1.50;99.90;;;;;;5073509;28;19920;-77
2022/01/10 03:36:38;;;;;;;;;;;1.50;99.90;;;;;;5073501;28;19979;-77
2022/01/10 03:39:04;;;;;;;;;;;1.50;99.90;;;;;;5073492;28;19964;-77
2022/01/10 03:41:29;;;;;;;;;;;1.50;99.90;;;;;;5056240;28;19927;-77
2022/01/10 03:43:55;;;;;;;;;;;1.50;99.90;;;;;;5073102;28;19920;-77
2022/01/10 03:46:20;;;;;;;;;;;1.50;99.90;;;;;;5073304;28;19920;-77
2022/01/10 03:48:46;;;;;;;;;;;1.50;99.90;;;;;;5056026;28;20297;-77
2022/01/10 03:51:11;;;;;;;;;;;1.50;99.90;;;;;;5073467;28;20372;-77
2022/01/10 03:53:37;;;;;;;;;;;1.50;99.90;;;;;;5073387;28;19920;-77
2022/01/10 03:56:02;;;;;;;;;;;1.50;99.90;;;;;;5073133;28;19990;-77
2022/01/10 03:58:29;;;;;;;;;;;1.40;99.90;;;;;;5073336;28;19920;-77
2022/01/10 04:00:54;;;;;;;;;;;1.40;99.90;;;;;;5072600;28;19927;-77
2022/01/10 04:03:20;;;;;;;;;;;1.40;99.90;;;;;;5056102;28;20641;-78
2022/01/10 04:05:45;;;;;;;;;;;1.40;99.90;;;;;;5073158;28;19964;-77
2022/01/10 04:08:12;;;;;;;;;;;1.40;99.90;;;;;;5072768;28;19924;-77
2022/01/10 04:10:38;;;;;;;;;;;1.30;99.90;;;;;;5055606;28;19920;-77
2022/01/10 04:13:03;;;;;;;;;;;1.30;99.90;;;;;;5072898;28;19927;-77
2022/01/10 04:15:29;;;;;;;;;;;1.30;99.90;;;;;;5072777;28;20014;-77
2022/01/10 04:17:56;;;;;;;;;;;1.30;99.90;;;;;;5072477;28;20002;-76
2022/01/10 04:20:23;;;;;;;;;;;1.30;99.90;;;;;;5072529;28;19927;-77
2022/01/10 04:22:48;;;;;;;;;;;1.30;99.90;;;;;;5072446;28;20626;-76
2022/01/10 04:25:14;;;;;;;;;;;1.30;99.90;;;;;;5072492;28;19927;-77
2022/01/10 04:27:39;;;;;;;;;;;1.30;99.90;;;;;;5061144;28;19928;-77
2022/01/10 04:30:05;;;;;;;;;;;1.30;99.90;;;;;;5036337;28;19925;-77
2022/01/10 04:32:32;;;;;;;;;;;1.30;99.90;;;;;;5051978;28;19967;-77
2022/01/10 04:34:58;;;;;;;;;;;1.30;99.90;;;;;;5052569;28;20384;-77
2022/01/10 04:37:24;;;;;;;;;;;1.30;99.90;;;;;;5052126;28;19928;-77
2022/01/10 04:39:49;;;;;;;;;;;1.30;99.90;;;;;;5051722;28;19924;-77
2022/01/10 04:42:14;;;;;;;;;;;1.30;99.90;;;;;;5051964;28;19921;-77
2022/01/10 04:44:41;;;;;;;;;;;1.30;99.90;;;;;;5052476;28;20329;-77
2022/01/10 04:47:07;;;;;;;;;;;1.30;99.90;;;;;;5051773;28;19924;-77
2022/01/10 04:49:49;;;;;;;;;;;1.30;99.90;;;;;;5052238;28;19924;-77
2022/01/10 04:52:15;;;;;;;;;;;1.20;99.90;;;;;;5052406;28;19955;-77
2022/01/10 04:54:40;;;;;;;;;;;1.30;99.90;;;;;;5052071;28;20001;-78
2022/01/10 04:57:06;;;;;;;;;;;1.20;99.90;;;;;;5036021;28;19920;-77
2022/01/10 04:59:31;;;;;;;;;;;1.20;99.90;;;;;;5036043;28;20042;-78
2022/01/10 05:01:57;;;;;;;;;;;1.20;99.90;;;;;;5052724;28;19944;-77
2022/01/10 05:04:22;;;;;;;;;;;1.20;99.90;;;;;;5052359;28;20389;-77
2022/01/10 05:06:48;;;;;;;;;;;1.20;99.90;;;;;;5035800;28;19920;-77
2022/01/10 05:09:13;;;;;;;;;;;1.20;99.90;;;;;;5052433;28;19931;-77
2022/01/10 05:11:40;;;;;;;;;;;1.20;99.90;;;;;;5052344;28;20287;-77
2022/01/10 05:14:05;;;;;;;;;;;1.10;99.90;;;;;;5052665;28;19920;-77
2022/01/10 05:16:31;;;;;;;;;;;1.10;99.90;;;;;;5035860;28;19924;-77
2022/01/10 05:18:57;;;;;;;;;;;1.10;99.90;;;;;;5052270;28;20394;-77
2022/01/10 05:21:22;;;;;;;;;;;1.10;99.90;;;;;;5051687;28;19920;-77
2022/01/10 05:23:48;;;;;;;;;;;1.10;99.90;;;;;;5052218;28;19971;-77
2022/01/10 05:26:14;;;;;;;;;;;1.10;99.90;;;;;;5052225;28;19978;-77
2022/01/10 05:28:39;;;;;;;;;;;1.10;99.90;;;;;;5054377;28;20310;-77
2022/01/10 05:31:05;;;;;;;;;;;1.00;99.90;;;;;;5071850;28;19919;-77
2022/01/10 05:33:31;;;;;;;;;;;1.00;99.90;;;;;;5054813;28;19968;-76
2022/01/10 05:35:56;;;;;;;;;;;1.00;99.90;;;;;;5072398;28;20360;-77
2022/01/10 05:38:22;;;;;;;;;;;0.90;99.90;;;;;;5072029;28;19920;-77
2022/01/10 05:40:47;;;;;;;;;;;0.90;99.90;;;;;;5072246;28;19920;-77
2022/01/10 05:43:13;;;;;;;;;;;0.90;99.90;;;;;;5054745;28;19947;-77
2022/01/10 05:45:42;;;;;;;;;;;0.90;99.90;;;;;;5055449;28;20321;-78
2022/01/10 05:48:11;;;;;;;;;;;0.80;99.90;;;;;;5071939;28;19923;-76
2022/01/10 05:50:37;;;;;;;;;;;0.80;99.90;;;;;;5055412;28;19924;-78
2022/01/10 05:53:03;;;;;;;;;;;0.80;99.90;;;;;;5072004;28;19988;-77
2022/01/10 05:55:29;;;;;;;;;;;0.70;99.90;;;;;;5054710;28;19924;-77
2022/01/10 05:57:55;;;;;;;;;;;0.70;99.90;;;;;;5055369;28;19927;-78
2022/01/10 06:00:21;;;;;;;;;;;0.70;99.90;;;;;;5055165;28;19973;-77
2022/01/10 06:02:46;;;;;;;;;;;0.70;99.90;;;;;;5055615;28;19965;-77
2022/01/10 06:05:12;;;;;;;;;;;0.70;99.90;;;;;;5072072;28;20384;-77
2022/01/10 06:07:37;;;;;;;;;;;0.70;99.90;;;;;;5071149;28;20355;-78
2022/01/10 06:10:04;;;;;;;;;;;0.70;99.90;;;;;;5055136;28;19965;-77
2022/01/10 06:12:29;;;;;;;;;;;0.70;99.90;;;;;;5055274;28;19920;-77
2022/01/10 06:14:55;;;;;;;;;;;0.70;99.90;;;;;;5071427;28;19973;-77
2022/01/10 06:17:20;;;;;;;;;;;0.70;99.90;;;;;;5073710;28;20116;-76
2022/01/10 06:19:46;;;;;;;;;;;0.70;99.90;;;;;;5076341;28;19924;-78
2022/01/10 06:22:11;;;;;;;;;;;0.70;99.90;;;;;;5075414;28;19974;-78
2022/01/10 06:24:37;;;;;;;;;;;0.70;99.90;;;;;;5075615;28;19920;-77
2022/01/10 06:27:03;;;;;;;;;;;0.70;99.90;;;;;;5069807;28;19920;-77
2022/01/10 06:29:28;;;;;;;;;;;0.70;99.90;;;;;;5055737;28;19920;-77
2022/01/10 06:31:53;;;;;;;;;;;0.70;99.90;;;;;;5055263;28;19920;-78
2022/01/10 06:34:19;;;;;;;;;;;0.70;99.90;;;;;;5055074;28;20298;-77
2022/01/10 06:36:45;;;;;;;;;;;0.70;99.90;;;;;;5055671;28;19963;-78
2022/01/10 06:39:11;;;;;;;;;;;0.70;99.90;;;;;;5055565;28;20385;-77
2022/01/10 06:41:37;;;;;;;;;;;0.70;99.90;;;;;;5038647;28;19920;-78
2022/01/10 06:44:03;;;;;;;;;;;0.60;99.90;;;;;;5055437;28;19970;-77
2022/01/10 06:46:28;;;;;;;;;;;0.50;99.90;;;;;;5055510;28;19927;-78
2022/01/10 06:48:54;;;;;;;;;;;0.60;99.90;;;;;;5054781;28;19920;-74
2022/01/10 06:51:19;;;;;;;;;;;0.60;99.90;;;;;;5073216;28;19920;-76
2022/01/10 06:53:45;;;;;;;;;;;0.60;99.90;;;;;;5054995;28;19924;-76
2022/01/10 06:56:10;;;;;;;;;;;0.60;99.90;;;;;;5066463;28;20275;-76
2022/01/10 06:58:36;;;;;;;;;;;0.60;99.90;;;;;;5067848;28;19958;-76
2022/01/10 07:01:02;;;;;;;;;;;0.60;99.90;;;;;;5072122;28;20036;-76
2022/01/10 07:03:27;;;;;;;;;;;0.50;99.90;;;;;;5054745;28;20378;-77
2022/01/10 07:05:53;;;;;;;;;;;0.50;99.90;;;;;;5054407;28;19924;-77
2022/01/10 07:08:19;;;;;;;;;;;0.50;99.90;;;;;;5038170;28;19920;-77
2022/01/10 07:10:45;;;;;;;;;;;0.50;99.90;;;;;;5037906;28;19967;-77
2022/01/10 07:13:11;;;;;;;;;;;0.50;99.90;;;;;;5054905;28;20013;-77
2022/01/10 07:15:36;;;;;;;;;;;0.50;99.90;;;;;;5054432;28;19920;-77
2022/01/10 07:18:02;;;;;;;;;;;0.50;99.90;;;;;;5054622;28;20006;-76
2022/01/10 07:20:27;;;;;;;;;;;0.40;99.90;;;;;;5054783;28;19924;-77
2022/01/10 07:22:53;;;;;;;;;;;0.40;99.90;;;;;;5037894;28;20496;-77
2022/01/10 07:25:18;;;;;;;;;;;0.40;99.90;;;;;;5054888;28;19920;-77
2022/01/10 07:27:44;;;;;;;;;;;0.40;99.90;;;;;;5065894;28;20421;-77
2022/01/10 07:30:10;;;;;;;;;;;0.40;99.90;;;;;;5074269;28;19920;-77
2022/01/10 07:32:35;;;;;;;;;;;0.40;99.90;;;;;;5057654;28;19973;-77
2022/01/10 07:35:01;;;;;;;;;;;0.40;99.90;;;;;;5074678;28;19924;-77
2022/01/10 07:37:27;;;;;;;;;;;0.50;99.90;;;;;;5074192;28;19959;-77
2022/01/10 07:39:52;;;;;;;;;;;0.50;99.90;;;;;;5074012;28;19967;-77
2022/01/10 07:42:18;;;;;;;;;;;0.50;99.90;;;;;;5074083;28;20326;-77
2022/01/10 07:44:43;;;;;;;;;;;0.50;99.90;;;;;;5057575;28;19924;-77
2022/01/10 07:47:09;;;;;;;;;;;0.40;99.90;;;;;;5056656;28;19924;-77
2022/01/10 07:49:35;;;;;;;;;;;0.40;99.90;;;;;;5073518;28;19927;-76
2022/01/10 07:52:01;;;;;;;;;;;0.40;99.90;;;;;;5056981;28;20335;-77
2022/01/10 07:54:26;;;;;;;;;;;0.40;99.90;;;;;;5074221;28;19926;-77
2022/01/10 07:56:52;;;;;;;;;;;0.40;99.90;;;;;;5091031;28;19920;-77
2022/01/10 07:59:18;;;;;;;;;;;0.40;99.90;;;;;;5073831;28;19920;-77
2022/01/10 08:01:46;;;;;;;;;;;0.40;99.90;;;;;;5057350;28;20026;-77
2022/01/10 08:04:12;;;;;;;;;;;0.40;99.90;;;;;;5073814;28;19938;-77
2022/01/10 08:06:38;;;;;;;;;;;0.40;99.90;;;;;;5057055;28;19957;-77
2022/01/10 08:09:03;;;;;;;;;;;0.40;99.90;;;;;;5073719;28;19924;-77
2022/01/10 08:11:29;;;;;;;;;;;0.40;99.90;;;;;;5073779;28;19920;-77
2022/01/10 08:13:55;;;;;;;;;;;0.40;99.90;;;;;;5073576;28;20460;-78
2022/01/10 08:16:21;;;;;;;;;;;0.40;99.90;;;;;;5074089;28;20080;-77
2022/01/10 08:18:46;;;;;;;;;;;0.30;99.90;;;;;;5073200;28;19927;-78
2022/01/10 08:21:12;;;;;;;;;;;0.40;99.90;;;;;;5090473;28;19924;-77
2022/01/10 08:23:38;;;;;;;;;;;0.40;99.90;;;;;;5073933;28;19951;-77
2022/01/10 08:26:06;;;;;;;;;;;0.40;99.90;;;;;;5073278;28;20377;-77
2022/01/10 08:28:31;;;;;;;;;;;0.40;99.90;;;;;;5038577;28;20465;-76
2022/01/10 08:30:57;;;;;;;;;;;0.50;99.90;;;;;;5052798;28;20014;-77
2022/01/10 08:33:22;;;;;;;;;;;0.50;99.90;;;;;;5037036;28;19920;-77
2022/01/10 08:35:48;;;;;;;;;;;0.50;99.90;;;;;;5053636;28;20374;-77
2022/01/10 08:38:14;;;;;;;;;;;0.60;99.90;;;;;;5053276;28;20015;-77
2022/01/10 08:40:39;;;;;;;;;;;0.60;99.90;;;;;;5052171;28;20386;-77
2022/01/10 08:43:09;;;;;;;;;;;0.60;99.90;;;;;;5052888;28;19920;-77
2022/01/10 08:45:35;;;;;;;;;;;0.70;99.90;;;;;;5053426;28;19932;-77
2022/01/10 08:48:00;;;;;;;;;;;0.70;99.90;;;;;;5052918;28;19924;-76
2022/01/10 08:50:27;;;;;;;;;;;0.70;99.90;;;;;;5052748;28;20302;-77
2022/01/10 08:52:52;;;;;;;;;;;0.80;99.90;;;;;;5069140;28;19920;-77
2022/01/10 08:55:18;;;;;;;;;;;0.80;99.90;;;;;;5069469;28;19934;-77
2022/01/10 08:57:43;;;;;;;;;;;0.90;99.90;;;;;;5052539;28;19926;-77
2022/01/10 09:00:09;;;;;;;;;;;0.90;99.90;;;;;;5052741;28;19920;-77
2022/01/10 09:02:35;;;;;;;;;;;0.90;99.90;;;;;;5069108;28;20271;-77
2022/01/10 09:05:00;;;;;;;;;;;0.90;99.90;;;;;;5052764;28;19927;-77
2022/01/10 09:07:26;;;;;;;;;;;1.00;99.90;;;;;;5052684;28;19920;-77
2022/01/10 09:09:52;;;;;;;;;;;1.00;99.90;;;;;;5051986;28;19927;-77
2022/01/10 09:12:17;;;;;;;;;;;1.00;99.90;;;;;;5051765;28;19963;-77
2022/01/10 09:14:43;;;;;;;;;;;1.10;99.90;;;;;;5051339;28;19943;-77
2022/01/10 09:17:08;;;;;;;;;;;1.10;99.90;;;;;;5068070;28;19928;-77
2022/01/10 09:19:34;;;;;;;;;;;1.10;99.90;;;;;;5051611;28;19930;-77
2022/01/10 09:21:59;;;;;;;;;;;1.20;99.90;;;;;;5067698;28;19967;-77
2022/01/10 09:24:25;;;;;;;;;;;1.20;99.90;;;;;;5068009;28;19975;-77
2022/01/10 09:26:50;;;;;;;;;;;1.20;99.90;;;;;;5055706;28;20384;-78
2022/01/10 09:29:16;;;;;;;;;;;1.20;99.90;;;;;;5054454;28;20331;-77
2022/01/10 09:31:41;;;;;;;;;;;1.20;99.90;;;;;;5054588;28;19965;-77
2022/01/10 09:34:07;;;;;;;;;;;1.20;99.90;;;;;;5071528;28;19966;-77
2022/01/10 09:36:34;;;;;;;;;;;1.30;99.90;;;;;;5071461;28;19966;-77
2022/01/10 09:39:00;;;;;;;;;;;1.30;99.90;;;;;;5070983;28;20425;-78
2022/01/10 09:41:26;;;;;;;;;;;1.30;99.90;;;;;;5071260;28;19927;-77
2022/01/10 09:44:00;;;;;;;;;;;1.40;99.90;;;;;;5054335;28;19920;-77
2022/01/10 09:46:26;;;;;;;;;;;1.40;99.90;;;;;;5071193;28;19920;-77
2022/01/10 09:48:52;;;;;;;;;;;1.50;99.90;;;;;;5070866;28;19924;-77
2022/01/10 09:51:17;;;;;;;;;;;1.50;99.90;;;;;;5053898;28;19920;-77
2022/01/10 09:53:43;;;;;;;;;;;1.60;99.90;;;;;;5071023;28;19966;-77
2022/01/10 09:56:09;;;;;;;;;;;1.60;99.90;;;;;;5054319;28;19927;-78
2022/01/10 09:58:34;;;;;;;;;;;1.60;99.90;;;;;;5070819;28;19931;-77
2022/01/10 10:01:01;;;;;;;;;;;1.70;99.90;;;;;;5071292;28;19927;-78
2022/01/10 10:03:26;;;;;;;;;;;1.80;99.90;;;;;;5071119;28;20412;-77
2022/01/10 10:05:52;;;;;;;;;;;1.80;99.90;;;;;;5070946;28;19955;-77
2022/01/10 10:08:20;;;;;;;;;;;1.90;99.90;;;;;;5070790;28;19926;-78
2022/01/10 10:10:45;;;;;;;;;;;1.90;99.90;;;;;;5053994;28;19919;-78
2022/01/10 10:13:13;;;;;;;;;;;2.00;99.90;;;;;;5070923;28;19920;-77
2022/01/10 10:15:39;;;;;;;;;;;2.10;99.90;;;;;;5070833;28;19993;-78
2022/01/10 10:18:08;;;;;;;;;;;2.10;99.90;;;;;;5070834;28;20008;-77
2022/01/10 10:20:34;;;;;;;;;;;2.20;99.90;;;;;;5070581;28;19924;-77
2022/01/10 10:23:02;;;;;;;;;;;2.30;99.90;;;;;;5071003;28;20109;-78
2022/01/10 10:25:27;;;;;;;;;;;2.30;99.90;;;;;;5070283;28;19920;-78
2022/01/10 10:27:53;;;;;;;;;;;2.40;99.90;;;;;;5057404;28;20336;-77
2022/01/10 10:30:21;;;;;;;;;;;2.40;99.90;;;;;;5051037;28;20416;-78
2022/01/10 10:32:47;;;;;;;;;;;2.50;99.90;;;;;;5051135;28;20412;-77
2022/01/10 10:35:14;;;;;;;;;;;2.50;99.90;;;;;;5050523;28;19928;-77
2022/01/10 10:37:40;;;;;;;;;;;2.60;99.90;;;;;;5066961;28;19920;-78
2022/01/10 10:40:09;;;;;;;;;;;2.60;99.90;;;;;;5050626;28;20015;-78
2022/01/10 10:42:34;;;;;;;;;;;2.60;99.90;;;;;;5050463;28;19934;-77
2022/01/10 10:45:07;;;;;;;;;;;2.70;99.90;;;;;;5050632;28;20031;-77
2022/01/10 10:47:33;;;;;;;;;;;2.70;99.90;;;;;;5050144;28;19921;-78
2022/01/10 10:49:59;;;;;;;;;;;2.80;99.90;;;;;;5050469;28;20011;-78
2022/01/10 10:52:30;;;;;;;;;;;2.90;99.90;;;;;;5050673;28;20015;-78
2022/01/10 10:54:55;;;;;;;;;;;3.20;99.90;;;;;;5050467;28;20382;-77
2022/01/10 10:57:21;;;;;;;;;;;3.50;99.90;;;;;;5049804;28;19943;-79
2022/01/10 10:59:48;;;;;;;;;;;3.70;99.90;;;;;;5051428;28;19927;-78
2022/01/10 11:02:13;;;;;;;;;;;3.90;99.90;;;;;;5051400;28;19947;-78
2022/01/10 11:04:40;;;;;;;;;;;4.10;99.90;;;;;;5054860;28;20429;-78
2022/01/10 11:07:05;;;;;;;;;;;4.30;99.90;;;;;;5054478;28;19920;-78
2022/01/10 11:09:31;;;;;;;;;;;4.50;99.90;;;;;;5054560;28;19924;-79
2022/01/10 11:11:57;;;;;;;;;;;4.70;99.90;;;;;;5055117;28;19924;-78
2022/01/10 11:14:24;;;;;;;;;;;4.90;99.90;;;;;;5054651;28;19920;-78
2022/01/10 11:16:52;;;;;;;;;;;5.30;99.90;;;;;;5054507;28;20384;-78
2022/01/10 11:19:23;;;;;;;;;;;5.50;99.90;;;;;;5054693;28;19934;-78
2022/01/10 11:21:53;;;;;;;;;;;5.90;99.90;;;;;;5071353;28;19970;-79
2022/01/10 11:24:37;;;;;;;;;;;6.50;99.90;;;;;;5054740;28;19927;-79
2022/01/10 11:27:07;;;;;;;;;;;7.20;99.90;;;;;;5060336;28;19965;-78
2022/01/10 11:29:39;;;;;;;;;;;7.80;99.90;;;;;;5057939;28;20064;-79
2022/01/10 11:32:06;;;;;;;;;;;8.20;99.90;;;;;;5074253;28;19927;-79
2022/01/10 11:34:32;;;;;;;;;;;8.30;99.90;;;;;;5057962;28;20328;-79
2022/01/10 11:36:58;;;;;;;;;;;8.50;99.90;;;;;;5074473;28;19920;-78
2022/01/10 11:39:34;;;;;;;;;;;8.60;99.90;;;;;;5090616;28;20461;-78
2022/01/10 11:42:01;;;;;;;;;;;8.60;99.90;;;;;;5074393;28;20374;-79
2022/01/10 11:44:26;;;;;;;;;;;8.30;99.90;;;;;;5057706;28;19921;-78
2022/01/10 11:46:57;;;;;;;;;;;8.10;99.90;;;;;;5074144;28;19926;-79
2022/01/10 11:49:23;;;;;;;;;;;7.80;99.90;;;;;;5057023;28;19946;-78
2022/01/10 11:51:51;;;;;;;;;;;7.50;99.90;;;;;;5091447;28;20370;-79
2022/01/10 11:54:18;;;;;;;;;;;7.10;99.90;;;;;;5073632;28;19998;-78
2022/01/10 11:56:45;;;;;;;;;;;6.80;99.90;;;;;;5072689;28;19924;-78
2022/01/10 11:59:12;;;;;;;;;;;6.50;99.90;;;;;;5056467;28;19920;-78
2022/01/10 12:01:39;;;;;;;;;;;6.20;99.90;;;;;;5072976;28;19920;-78
2022/01/10 12:04:05;;;;;;;;;;;6.00;99.90;;;;;;5073170;28;20007;-78
2022/01/10 12:06:30;;;;;;;;;;;5.90;99.90;;;;;;5072895;28;20019;-78
2022/01/10 12:08:57;;;;;;;;;;;5.80;99.90;;;;;;5072703;28;19955;-79
2022/01/10 12:11:24;;;;;;;;;;;5.90;99.90;;;;;;5072971;28;19920;-78
2022/01/10 12:13:51;;;;;;;;;;;5.90;99.90;;;;;;5055471;28;20003;-78
2022/01/10 12:16:17;;;;;;;;;;;5.90;99.90;;;;;;5072086;28;20026;-78
2022/01/10 12:18:42;;;;;;;;;;;5.80;99.90;;;;;;5072763;28;20027;-79
2022/01/10 12:21:08;;;;;;;;;;;5.80;99.90;;;;;;5072683;28;20336;-78
2022/01/10 12:23:33;;;;;;;;;;;5.80;99.90;;;;;;5089046;28;20443;-78
2022/01/10 12:25:59;;;;;;;;;;;5.90;99.90;;;;;;5073050;28;19927;-79
2022/01/10 12:28:27;;;;;;;;;;;6.00;99.90;;;;;;5090451;28;19919;-78
2022/01/10 12:30:52;;;;;;;;;;;6.10;99.90;;;;;;5073459;28;19922;-78
2022/01/10 12:33:18;;;;;;;;;;;6.20;99.90;;;;;;5073105;28;19920;-78
2022/01/10 12:35:44;;;;;;;;;;;6.30;99.90;;;;;;5056820;28;20028;-77
2022/01/10 12:38:09;;;;;;;;;;;6.30;99.90;;;;;;5073609;28;19920;-78
2022/01/10 12:40:35;;;;;;;;;;;6.30;99.90;;;;;;5056173;28;20362;-78
2022/01/10 12:43:00;;;;;;;;;;;6.30;99.90;;;;;;5073339;28;19977;-79
2022/01/10 12:45:31;;;;;;;;;;;6.40;99.90;;;;;;5056427;28;20350;-78
2022/01/10 12:47:56;;;;;;;;;;;6.70;99.90;;;;;;5055873;28;19923;-79
2022/01/10 12:50:23;;;;;;;;;;;6.80;99.90;;;;;;5072346;28;19926;-78
2022/01/10 12:52:48;;;;;;;;;;;6.80;99.90;;;;;;5071816;28;19927;-78
2022/01/10 12:55:14;;;;;;;;;;;6.70;99.90;;;;;;5055399;28;19919;-78
2022/01/10 12:57:39;;;;;;;;;;;6.70;99.90;;;;;;5054797;28;19919;-78
2022/01/10 13:00:06;;;;;;;;;;;6.70;99.90;;;;;;5072257;28;19920;-79
2022/01/10 13:02:34;;;;;;;;;;;6.70;99.90;;;;;;5054943;28;19947;-78
2022/01/10 13:05:04;;;;;;;;;;;6.70;99.90;;;;;;5072076;28;20361;-78
2022/01/10 13:07:30;;;;;;;;;;;6.80;99.90;;;;;;5071558;28;20084;-78
2022/01/10 13:09:58;;;;;;;;;;;7.00;99.90;;;;;;5071310;28;20019;-78
2022/01/10 13:14:49;;;;;;;;;;;7.10;99.90;;;;;;5071607;28;20012;-78
2022/01/10 13:17:14;;;;;;;;;;;7.40;99.90;;;;;;5054758;28;20408;-79
2022/01/10 13:19:42;;;;;;;;;;;7.50;99.90;;;;;;5071534;28;19920;-78
2022/01/10 13:22:13;;;;;;;;;;;7.70;99.90;;;;;;5071154;28;19969;-79
2022/01/10 13:24:51;;;;;;;;;;;7.60;99.90;;;;;;5055754;28;19945;-78
2022/01/10 13:27:21;;;;;;;;;;;7.50;99.90;;;;;;5064075;28;20314;-79
2022/01/10 13:29:47;;;;;;;;;;;7.60;99.90;;;;;;5035592;28;20469;-77
2022/01/10 13:32:27;;;;;;;;;;;7.60;99.90;;;;;;5052350;28;19920;-78
2022/01/10 13:34:59;;;;;;;;;;;7.50;99.90;;;;;;5035854;28;19989;-77
2022/01/10 13:37:34;;;;;;;;;;;7.40;99.90;;;;;;5052080;28;19928;-78
2022/01/10 13:40:09;;;;;;;;;;;7.20;99.90;;;;;;5034969;28;19927;-78
2022/01/10 13:43:04;;;;;;;;;;;7.10;99.90;;;;;;5052157;28;20616;-78
2022/01/10 13:45:41;;;;;;;;;;;7.00;99.90;;;;;;5042805;28;19978;-78
2022/01/10 13:48:26;;;;;;;;;;;7.10;99.90;;;;;;5052067;28;19966;-78
2022/01/10 13:50:53;;;;;;;;;;;7.00;99.90;;;;;;5051811;28;19946;-78
2022/01/10 13:53:23;;;;;;;;;;;7.00;99.90;;;;;;5051640;28;19927;-78
2022/01/10 13:56:05;;;;;;;;;;;6.90;99.90;;;;;;5052416;28;20309;-78
2022/01/10 13:58:31;;;;;;;;;;;6.90;99.90;;;;;;5051901;28;20409;-78
2022/01/10 14:00:58;;;;;;;;;;;6.90;99.90;;;;;;5035951;28;19921;-78
2022/01/10 14:03:25;;;;;;;;;;;6.80;99.90;;;;;;5051674;28;19994;-78
2022/01/10 14:06:03;;;;;;;;;;;6.80;99.90;;;;;;5035019;28;19920;-78
2022/01/10 14:08:29;;;;;;;;;;;6.90;99.90;;;;;;5051605;28;19924;-78
2022/01/10 14:10:54;;;;;;;;;;;7.00;99.90;;;;;;5051187;28;19927;-78
2022/01/10 14:13:20;;;;;;;;;;;7.00;99.90;;;;;;5051648;28;19994;-78
2022/01/10 14:15:45;;;;;;;;;;;6.90;99.90;;;;;;5051823;28;20392;-78
2022/01/10 14:18:11;;;;;;;;;;;6.90;99.90;;;;;;5051756;28;19928;-78
2022/01/10 14:20:36;;;;;;;;;;;6.90;99.90;;;;;;5051835;28;19920;-78
2022/01/10 14:23:02;;;;;;;;;;;7.10;99.90;;;;;;5051167;28;19920;-78
2022/01/10 14:25:27;;;;;;;;;;;7.20;99.90;;;;;;5051601;28;20298;-78